sensor_id;sensor_type;location;lat;lon;timestamp;P1;durP1;ratioP1;P2;durP2;ratioP2
34695;SDS011;20918;51.138;17.370;2022-10-13T00:01:21;39.10;;;20.62;;
34695;SDS011;20918;51.138;17.370;2022-10-13T00:04:23;39.78;;;19.87;;
34695;SDS011;20918;51.138;17.370;2022-10-13T00:10:25;38.60;;;20.30;;
34695;SDS011;20918;51.138;17.370;2022-10-13T00:13:27;38.78;;;19.37;;
34695;SDS011;20918;51.138;17.370;2022-10-13T00:16:29;39.55;;;19.62;;
34695;SDS011;20918;51.138;17.370;2022-10-13T00:19:31;34.27;;;19.75;;
34695;SDS011;20918;51.138;17.370;2022-10-13T00:22:33;34.15;;;18.82;;
34695;SDS011;20918;51.138;17.370;2022-10-13T00:25:34;37.73;;;20.00;;
34695;SDS011;20918;51.138;17.370;2022-10-13T00:28:46;38.65;;;19.70;;
34695;SDS011;20918;51.138;17.370;2022-10-13T00:34:47;39.23;;;20.40;;
34695;SDS011;20918;51.138;17.370;2022-10-13T00:37:49;43.68;;;21.82;;
34695;SDS011;20918;51.138;17.370;2022-10-13T00:40:53;41.85;;;21.60;;
34695;SDS011;20918;51.138;17.370;2022-10-13T00:47:02;49.15;;;24.37;;
34695;SDS011;20918;51.138;17.370;2022-10-13T00:50:05;47.30;;;24.10;;
34695;SDS011;20918;51.138;17.370;2022-10-13T00:53:10;49.73;;;24.07;;
34695;SDS011;20918;51.138;17.370;2022-10-13T00:56:12;45.52;;;24.32;;
34695;SDS011;20918;51.138;17.370;2022-10-13T00:59:22;49.23;;;25.40;;
34695;SDS011;20918;51.138;17.370;2022-10-13T01:02:28;49.88;;;24.70;;
34695;SDS011;20918;51.138;17.370;2022-10-13T01:05:32;41.58;;;21.95;;
34695;SDS011;20918;51.138;17.370;2022-10-13T01:08:34;34.88;;;18.23;;
34695;SDS011;20918;51.138;17.370;2022-10-13T01:14:52;54.18;;;25.75;;
34695;SDS011;20918;51.138;17.370;2022-10-13T01:31:23;42.95;;;23.42;;
34695;SDS011;20918;51.138;17.370;2022-10-13T01:40:59;45.03;;;22.80;;
34695;SDS011;20918;51.138;17.370;2022-10-13T01:47:37;34.73;;;17.77;;
34695;SDS011;20918;51.138;17.370;2022-10-13T01:50:39;28.10;;;16.60;;
34695;SDS011;20918;51.138;17.370;2022-10-13T01:53:41;41.53;;;19.07;;
34695;SDS011;20918;51.138;17.370;2022-10-13T01:56:50;31.50;;;18.07;;
34695;SDS011;20918;51.138;17.370;2022-10-13T01:59:53;31.42;;;17.27;;
34695;SDS011;20918;51.138;17.370;2022-10-13T02:06:12;40.78;;;19.85;;
34695;SDS011;20918;51.138;17.370;2022-10-13T02:09:33;40.78;;;20.70;;
34695;SDS011;20918;51.138;17.370;2022-10-13T02:12:49;43.53;;;23.70;;
34695;SDS011;20918;51.138;17.370;2022-10-13T02:15:58;46.40;;;24.75;;
34695;SDS011;20918;51.138;17.370;2022-10-13T02:19:01;53.05;;;26.17;;
34695;SDS011;20918;51.138;17.370;2022-10-13T02:22:05;47.90;;;23.35;;
34695;SDS011;20918;51.138;17.370;2022-10-13T02:25:10;45.88;;;24.87;;
34695;SDS011;20918;51.138;17.370;2022-10-13T02:28:11;46.50;;;24.95;;
34695;SDS011;20918;51.138;17.370;2022-10-13T02:31:16;48.52;;;25.97;;
34695;SDS011;20918;51.138;17.370;2022-10-13T02:37:19;42.70;;;23.70;;
34695;SDS011;20918;51.138;17.370;2022-10-13T02:40:21;50.00;;;24.35;;
34695;SDS011;20918;51.138;17.370;2022-10-13T02:43:22;49.90;;;24.87;;
34695;SDS011;20918;51.138;17.370;2022-10-13T02:46:23;39.73;;;24.18;;
34695;SDS011;20918;51.138;17.370;2022-10-13T02:49:24;45.28;;;23.62;;
34695;SDS011;20918;51.138;17.370;2022-10-13T02:52:25;44.33;;;24.80;;
34695;SDS011;20918;51.138;17.370;2022-10-13T02:55:26;43.85;;;23.52;;
34695;SDS011;20918;51.138;17.370;2022-10-13T02:58:29;46.58;;;24.65;;
34695;SDS011;20918;51.138;17.370;2022-10-13T03:01:30;48.60;;;25.68;;
34695;SDS011;20918;51.138;17.370;2022-10-13T03:07:32;43.90;;;24.10;;
34695;SDS011;20918;51.138;17.370;2022-10-13T03:10:33;39.95;;;24.12;;
34695;SDS011;20918;51.138;17.370;2022-10-13T03:16:38;49.85;;;23.98;;
34695;SDS011;20918;51.138;17.370;2022-10-13T03:19:41;40.23;;;22.25;;
34695;SDS011;20918;51.138;17.370;2022-10-13T03:22:44;47.48;;;23.98;;
34695;SDS011;20918;51.138;17.370;2022-10-13T03:25:46;38.42;;;21.27;;
34695;SDS011;20918;51.138;17.370;2022-10-13T03:31:49;50.00;;;25.40;;
34695;SDS011;20918;51.138;17.370;2022-10-13T03:34:50;46.40;;;24.25;;
34695;SDS011;20918;51.138;17.370;2022-10-13T03:37:52;47.70;;;24.35;;
34695;SDS011;20918;51.138;17.370;2022-10-13T03:40:55;46.68;;;24.90;;
34695;SDS011;20918;51.138;17.370;2022-10-13T03:43:56;53.35;;;25.10;;
34695;SDS011;20918;51.138;17.370;2022-10-13T03:46:57;46.40;;;24.87;;
34695;SDS011;20918;51.138;17.370;2022-10-13T03:49:58;61.63;;;31.48;;
34695;SDS011;20918;51.138;17.370;2022-10-13T03:56:01;48.65;;;26.87;;
34695;SDS011;20918;51.138;17.370;2022-10-13T03:59:05;45.75;;;26.02;;
34695;SDS011;20918;51.138;17.370;2022-10-13T04:02:07;41.92;;;24.55;;
34695;SDS011;20918;51.138;17.370;2022-10-13T04:08:09;43.15;;;25.32;;
34695;SDS011;20918;51.138;17.370;2022-10-13T04:11:12;48.25;;;25.05;;
34695;SDS011;20918;51.138;17.370;2022-10-13T04:14:15;51.15;;;27.90;;
34695;SDS011;20918;51.138;17.370;2022-10-13T04:17:17;47.60;;;27.10;;
34695;SDS011;20918;51.138;17.370;2022-10-13T04:23:18;47.10;;;25.45;;
34695;SDS011;20918;51.138;17.370;2022-10-13T04:26:21;41.83;;;25.43;;
34695;SDS011;20918;51.138;17.370;2022-10-13T04:29:24;50.45;;;25.35;;
34695;SDS011;20918;51.138;17.370;2022-10-13T04:32:25;48.55;;;26.30;;
34695;SDS011;20918;51.138;17.370;2022-10-13T04:35:27;46.85;;;26.45;;
34695;SDS011;20918;51.138;17.370;2022-10-13T04:38:28;54.40;;;27.30;;
34695;SDS011;20918;51.138;17.370;2022-10-13T04:41:29;42.60;;;26.10;;
34695;SDS011;20918;51.138;17.370;2022-10-13T04:44:30;45.88;;;26.07;;
34695;SDS011;20918;51.138;17.370;2022-10-13T04:47:34;51.23;;;26.02;;
34695;SDS011;20918;51.138;17.370;2022-10-13T04:50:37;46.35;;;25.92;;
34695;SDS011;20918;51.138;17.370;2022-10-13T04:53:38;48.50;;;27.00;;
34695;SDS011;20918;51.138;17.370;2022-10-13T04:56:43;42.67;;;24.72;;
34695;SDS011;20918;51.138;17.370;2022-10-13T04:59:45;45.03;;;24.35;;
34695;SDS011;20918;51.138;17.370;2022-10-13T05:05:47;49.93;;;26.68;;
34695;SDS011;20918;51.138;17.370;2022-10-13T05:08:48;43.17;;;25.52;;
34695;SDS011;20918;51.138;17.370;2022-10-13T05:11:50;49.93;;;28.73;;
34695;SDS011;20918;51.138;17.370;2022-10-13T05:14:53;46.68;;;28.40;;
34695;SDS011;20918;51.138;17.370;2022-10-13T05:17:54;49.10;;;28.27;;
34695;SDS011;20918;51.138;17.370;2022-10-13T05:23:56;47.33;;;29.92;;
34695;SDS011;20918;51.138;17.370;2022-10-13T05:26:57;60.65;;;32.05;;
34695;SDS011;20918;51.138;17.370;2022-10-13T05:29:58;64.90;;;33.35;;
34695;SDS011;20918;51.138;17.370;2022-10-13T05:36:07;53.45;;;31.52;;
34695;SDS011;20918;51.138;17.370;2022-10-13T05:39:12;45.95;;;27.62;;
34695;SDS011;20918;51.138;17.370;2022-10-13T05:45:13;46.50;;;28.65;;
34695;SDS011;20918;51.138;17.370;2022-10-13T05:48:15;48.20;;;27.10;;
34695;SDS011;20918;51.138;17.370;2022-10-13T05:57:33;45.52;;;25.48;;
34695;SDS011;20918;51.138;17.370;2022-10-13T06:00:38;42.90;;;23.70;;
34695;SDS011;20918;51.138;17.370;2022-10-13T06:03:41;45.43;;;26.48;;
34695;SDS011;20918;51.138;17.370;2022-10-13T06:06:45;46.15;;;26.27;;
34695;SDS011;20918;51.138;17.370;2022-10-13T06:09:48;51.98;;;26.15;;
34695;SDS011;20918;51.138;17.370;2022-10-13T06:12:49;40.38;;;23.77;;
34695;SDS011;20918;51.138;17.370;2022-10-13T06:15:50;44.93;;;24.87;;
34695;SDS011;20918;51.138;17.370;2022-10-13T06:18:51;47.17;;;23.75;;
34695;SDS011;20918;51.138;17.370;2022-10-13T06:21:52;37.15;;;23.42;;
34695;SDS011;20918;51.138;17.370;2022-10-13T06:24:53;35.20;;;23.85;;
34695;SDS011;20918;51.138;17.370;2022-10-13T06:27:57;41.50;;;23.45;;
34695;SDS011;20918;51.138;17.370;2022-10-13T06:31:02;39.33;;;22.20;;
34695;SDS011;20918;51.138;17.370;2022-10-13T06:34:04;35.98;;;21.07;;
34695;SDS011;20918;51.138;17.370;2022-10-13T06:37:05;40.52;;;21.80;;
34695;SDS011;20918;51.138;17.370;2022-10-13T06:40:07;36.33;;;21.35;;
34695;SDS011;20918;51.138;17.370;2022-10-13T06:43:09;36.48;;;21.77;;
34695;SDS011;20918;51.138;17.370;2022-10-13T06:46:12;39.67;;;22.75;;
34695;SDS011;20918;51.138;17.370;2022-10-13T06:49:13;38.50;;;21.25;;
34695;SDS011;20918;51.138;17.370;2022-10-13T06:52:14;34.63;;;19.67;;
34695;SDS011;20918;51.138;17.370;2022-10-13T06:55:15;40.10;;;22.62;;
34695;SDS011;20918;51.138;17.370;2022-10-13T06:58:17;42.75;;;22.95;;
34695;SDS011;20918;51.138;17.370;2022-10-13T07:01:18;39.25;;;23.38;;
34695;SDS011;20918;51.138;17.370;2022-10-13T07:04:20;40.45;;;24.18;;
34695;SDS011;20918;51.138;17.370;2022-10-13T07:07:22;40.85;;;24.25;;
34695;SDS011;20918;51.138;17.370;2022-10-13T07:10:23;41.58;;;24.15;;
34695;SDS011;20918;51.138;17.370;2022-10-13T07:13:24;43.50;;;25.50;;
34695;SDS011;20918;51.138;17.370;2022-10-13T07:16:25;43.45;;;23.47;;
34695;SDS011;20918;51.138;17.370;2022-10-13T07:19:26;45.17;;;25.92;;
34695;SDS011;20918;51.138;17.370;2022-10-13T07:22:27;44.83;;;26.20;;
34695;SDS011;20918;51.138;17.370;2022-10-13T07:25:29;52.30;;;27.90;;
34695;SDS011;20918;51.138;17.370;2022-10-13T07:28:30;49.95;;;27.27;;
34695;SDS011;20918;51.138;17.370;2022-10-13T07:31:31;46.50;;;24.80;;
34695;SDS011;20918;51.138;17.370;2022-10-13T07:34:32;52.85;;;27.52;;
34695;SDS011;20918;51.138;17.370;2022-10-13T07:37:33;50.20;;;28.42;;
34695;SDS011;20918;51.138;17.370;2022-10-13T07:40:35;46.08;;;25.57;;
34695;SDS011;20918;51.138;17.370;2022-10-13T07:43:37;46.90;;;26.07;;
34695;SDS011;20918;51.138;17.370;2022-10-13T07:46:40;46.90;;;27.32;;
34695;SDS011;20918;51.138;17.370;2022-10-13T07:49:41;51.13;;;28.30;;
34695;SDS011;20918;51.138;17.370;2022-10-13T07:52:42;49.90;;;27.75;;
34695;SDS011;20918;51.138;17.370;2022-10-13T07:55:44;49.98;;;28.17;;
34695;SDS011;20918;51.138;17.370;2022-10-13T07:58:46;47.17;;;26.48;;
34695;SDS011;20918;51.138;17.370;2022-10-13T08:01:47;47.95;;;27.17;;
34695;SDS011;20918;51.138;17.370;2022-10-13T08:04:48;54.08;;;27.25;;
34695;SDS011;20918;51.138;17.370;2022-10-13T08:07:49;49.53;;;28.73;;
34695;SDS011;20918;51.138;17.370;2022-10-13T08:10:50;52.78;;;28.17;;
34695;SDS011;20918;51.138;17.370;2022-10-13T08:13:52;47.15;;;28.32;;
34695;SDS011;20918;51.138;17.370;2022-10-13T08:16:56;45.60;;;24.77;;
34695;SDS011;20918;51.138;17.370;2022-10-13T08:19:58;43.33;;;25.43;;
34695;SDS011;20918;51.138;17.370;2022-10-13T08:23:01;47.50;;;26.02;;
34695;SDS011;20918;51.138;17.370;2022-10-13T08:26:02;44.05;;;25.55;;
34695;SDS011;20918;51.138;17.370;2022-10-13T08:29:04;42.40;;;24.47;;
34695;SDS011;20918;51.138;17.370;2022-10-13T08:32:06;41.05;;;23.45;;
34695;SDS011;20918;51.138;17.370;2022-10-13T08:35:08;39.10;;;22.27;;
34695;SDS011;20918;51.138;17.370;2022-10-13T08:38:10;40.85;;;23.62;;
34695;SDS011;20918;51.138;17.370;2022-10-13T08:41:15;40.63;;;23.10;;
34695;SDS011;20918;51.138;17.370;2022-10-13T08:44:37;39.83;;;22.07;;
34695;SDS011;20918;51.138;17.370;2022-10-13T08:47:50;36.60;;;21.93;;
34695;SDS011;20918;51.138;17.370;2022-10-13T08:50:55;43.17;;;23.18;;
34695;SDS011;20918;51.138;17.370;2022-10-13T08:54:00;43.02;;;21.45;;
34695;SDS011;20918;51.138;17.370;2022-10-13T08:57:03;40.92;;;21.68;;
34695;SDS011;20918;51.138;17.370;2022-10-13T09:00:08;39.03;;;22.02;;
34695;SDS011;20918;51.138;17.370;2022-10-13T09:03:21;37.23;;;21.23;;
34695;SDS011;20918;51.138;17.370;2022-10-13T09:06:26;34.78;;;20.20;;
34695;SDS011;20918;51.138;17.370;2022-10-13T09:09:32;35.78;;;21.15;;
34695;SDS011;20918;51.138;17.370;2022-10-13T09:12:33;36.42;;;21.55;;
34695;SDS011;20918;51.138;17.370;2022-10-13T09:15:41;37.45;;;20.70;;
34695;SDS011;20918;51.138;17.370;2022-10-13T09:18:45;39.98;;;20.25;;
34695;SDS011;20918;51.138;17.370;2022-10-13T09:22:12;36.25;;;19.27;;
34695;SDS011;20918;51.138;17.370;2022-10-13T09:25:02;38.38;;;20.68;;
34695;SDS011;20918;51.138;17.370;2022-10-13T09:28:21;35.65;;;20.23;;
34695;SDS011;20918;51.138;17.370;2022-10-13T09:31:27;31.93;;;19.00;;
34695;SDS011;20918;51.138;17.370;2022-10-13T09:34:29;32.40;;;17.30;;
34695;SDS011;20918;51.138;17.370;2022-10-13T09:37:31;34.00;;;17.98;;
34695;SDS011;20918;51.138;17.370;2022-10-13T09:40:35;35.38;;;17.30;;
34695;SDS011;20918;51.138;17.370;2022-10-13T09:46:58;27.85;;;16.17;;
34695;SDS011;20918;51.138;17.370;2022-10-13T09:50:15;22.98;;;13.78;;
34695;SDS011;20918;51.138;17.370;2022-10-13T09:53:25;22.45;;;12.55;;
34695;SDS011;20918;51.138;17.370;2022-10-13T09:56:41;23.20;;;12.65;;
34695;SDS011;20918;51.138;17.370;2022-10-13T09:59:49;55.10;;;34.73;;
34695;SDS011;20918;51.138;17.370;2022-10-13T10:06:23;19.55;;;12.03;;
34695;SDS011;20918;51.138;17.370;2022-10-13T10:09:32;22.60;;;12.63;;
34695;SDS011;20918;51.138;17.370;2022-10-13T10:12:36;24.05;;;12.82;;
34695;SDS011;20918;51.138;17.370;2022-10-13T10:15:54;22.10;;;11.83;;
34695;SDS011;20918;51.138;17.370;2022-10-13T10:26:03;23.80;;;11.12;;
34695;SDS011;20918;51.138;17.370;2022-10-13T10:32:59;23.67;;;12.30;;
34695;SDS011;20918;51.138;17.370;2022-10-13T10:36:07;21.05;;;11.08;;
34695;SDS011;20918;51.138;17.370;2022-10-13T10:46:04;18.92;;;10.63;;
34695;SDS011;20918;51.138;17.370;2022-10-13T10:49:18;20.10;;;10.68;;
34695;SDS011;20918;51.138;17.370;2022-10-13T11:02:46;22.13;;;11.03;;
34695;SDS011;20918;51.138;17.370;2022-10-13T11:06:03;16.17;;;9.75;;
34695;SDS011;20918;51.138;17.370;2022-10-13T11:09:14;23.02;;;10.55;;
34695;SDS011;20918;51.138;17.370;2022-10-13T11:18:57;19.75;;;9.95;;
34695;SDS011;20918;51.138;17.370;2022-10-13T11:22:22;23.35;;;9.98;;
34695;SDS011;20918;51.138;17.370;2022-10-13T11:25:38;16.27;;;9.00;;
34695;SDS011;20918;51.138;17.370;2022-10-13T11:28:44;16.97;;;10.05;;
34695;SDS011;20918;51.138;17.370;2022-10-13T11:31:52;17.87;;;9.88;;
34695;SDS011;20918;51.138;17.370;2022-10-13T11:34:59;20.20;;;9.60;;
34695;SDS011;20918;51.138;17.370;2022-10-13T11:38:15;18.23;;;9.90;;
34695;SDS011;20918;51.138;17.370;2022-10-13T11:41:17;15.10;;;8.78;;
34695;SDS011;20918;51.138;17.370;2022-10-13T11:44:26;18.85;;;9.40;;
34695;SDS011;20918;51.138;17.370;2022-10-13T11:47:56;18.45;;;10.00;;
34695;SDS011;20918;51.138;17.370;2022-10-13T11:58:11;16.37;;;9.00;;
34695;SDS011;20918;51.138;17.370;2022-10-13T12:01:15;16.82;;;8.43;;
34695;SDS011;20918;51.138;17.370;2022-10-13T12:04:19;18.27;;;9.75;;
34695;SDS011;20918;51.138;17.370;2022-10-13T12:07:23;16.20;;;8.95;;
34695;SDS011;20918;51.138;17.370;2022-10-13T12:10:30;16.50;;;9.28;;
34695;SDS011;20918;51.138;17.370;2022-10-13T12:13:36;18.37;;;9.28;;
34695;SDS011;20918;51.138;17.370;2022-10-13T12:16:37;17.07;;;8.73;;
34695;SDS011;20918;51.138;17.370;2022-10-13T12:19:38;18.02;;;8.58;;
34695;SDS011;20918;51.138;17.370;2022-10-13T12:22:45;20.05;;;9.38;;
34695;SDS011;20918;51.138;17.370;2022-10-13T12:25:50;15.95;;;8.95;;
34695;SDS011;20918;51.138;17.370;2022-10-13T12:28:55;15.55;;;8.20;;
34695;SDS011;20918;51.138;17.370;2022-10-13T12:32:02;16.73;;;8.33;;
34695;SDS011;20918;51.138;17.370;2022-10-13T12:35:24;12.95;;;6.70;;
34695;SDS011;20918;51.138;17.370;2022-10-13T12:38:28;12.70;;;7.45;;
34695;SDS011;20918;51.138;17.370;2022-10-13T12:41:30;15.83;;;7.50;;
34695;SDS011;20918;51.138;17.370;2022-10-13T12:44:35;11.55;;;6.58;;
34695;SDS011;20918;51.138;17.370;2022-10-13T12:47:38;15.63;;;7.83;;
34695;SDS011;20918;51.138;17.370;2022-10-13T12:50:47;16.12;;;8.20;;
34695;SDS011;20918;51.138;17.370;2022-10-13T12:53:48;14.55;;;7.50;;
34695;SDS011;20918;51.138;17.370;2022-10-13T12:56:50;12.53;;;6.35;;
34695;SDS011;20918;51.138;17.370;2022-10-13T12:59:55;17.15;;;7.22;;
34695;SDS011;20918;51.138;17.370;2022-10-13T13:03:01;19.62;;;7.42;;
34695;SDS011;20918;51.138;17.370;2022-10-13T13:09:18;13.83;;;5.33;;
34695;SDS011;20918;51.138;17.370;2022-10-13T13:15:32;8.38;;;5.45;;
34695;SDS011;20918;51.138;17.370;2022-10-13T13:18:41;12.63;;;5.75;;
34695;SDS011;20918;51.138;17.370;2022-10-13T13:21:44;21.07;;;7.50;;
34695;SDS011;20918;51.138;17.370;2022-10-13T13:24:45;13.03;;;6.92;;
34695;SDS011;20918;51.138;17.370;2022-10-13T13:27:46;14.90;;;8.30;;
34695;SDS011;20918;51.138;17.370;2022-10-13T13:30:49;17.12;;;8.58;;
34695;SDS011;20918;51.138;17.370;2022-10-13T13:33:51;16.57;;;7.85;;
34695;SDS011;20918;51.138;17.370;2022-10-13T13:36:52;11.12;;;7.10;;
34695;SDS011;20918;51.138;17.370;2022-10-13T13:39:53;12.75;;;7.53;;
34695;SDS011;20918;51.138;17.370;2022-10-13T13:42:55;11.03;;;6.50;;
34695;SDS011;20918;51.138;17.370;2022-10-13T13:45:58;13.28;;;7.20;;
34695;SDS011;20918;51.138;17.370;2022-10-13T13:48:59;16.17;;;7.72;;
34695;SDS011;20918;51.138;17.370;2022-10-13T13:52:01;20.88;;;7.78;;
34695;SDS011;20918;51.138;17.370;2022-10-13T13:55:02;17.65;;;7.47;;
34695;SDS011;20918;51.138;17.370;2022-10-13T13:58:04;16.93;;;7.97;;
34695;SDS011;20918;51.138;17.370;2022-10-13T14:01:05;21.35;;;8.10;;
34695;SDS011;20918;51.138;17.370;2022-10-13T14:04:07;14.38;;;7.55;;
34695;SDS011;20918;51.138;17.370;2022-10-13T14:07:08;12.43;;;6.62;;
34695;SDS011;20918;51.138;17.370;2022-10-13T14:10:12;17.42;;;7.28;;
34695;SDS011;20918;51.138;17.370;2022-10-13T14:13:14;15.65;;;7.35;;
34695;SDS011;20918;51.138;17.370;2022-10-13T14:16:15;15.88;;;7.72;;
34695;SDS011;20918;51.138;17.370;2022-10-13T14:19:17;16.40;;;7.53;;
34695;SDS011;20918;51.138;17.370;2022-10-13T14:22:18;11.75;;;7.53;;
34695;SDS011;20918;51.138;17.370;2022-10-13T14:25:20;13.32;;;7.28;;
34695;SDS011;20918;51.138;17.370;2022-10-13T14:28:21;15.05;;;7.47;;
34695;SDS011;20918;51.138;17.370;2022-10-13T14:31:22;13.78;;;6.75;;
34695;SDS011;20918;51.138;17.370;2022-10-13T14:34:24;16.37;;;6.78;;
34695;SDS011;20918;51.138;17.370;2022-10-13T14:37:25;14.40;;;5.95;;
34695;SDS011;20918;51.138;17.370;2022-10-13T14:40:27;11.28;;;6.45;;
34695;SDS011;20918;51.138;17.370;2022-10-13T14:43:30;13.10;;;6.90;;
34695;SDS011;20918;51.138;17.370;2022-10-13T14:46:32;9.95;;;6.05;;
34695;SDS011;20918;51.138;17.370;2022-10-13T14:49:33;11.45;;;6.00;;
34695;SDS011;20918;51.138;17.370;2022-10-13T14:52:36;10.03;;;5.87;;
34695;SDS011;20918;51.138;17.370;2022-10-13T14:55:37;13.13;;;5.37;;
34695;SDS011;20918;51.138;17.370;2022-10-13T14:58:39;12.35;;;5.53;;
34695;SDS011;20918;51.138;17.370;2022-10-13T15:01:42;15.10;;;6.67;;
34695;SDS011;20918;51.138;17.370;2022-10-13T15:04:43;11.85;;;6.33;;
34695;SDS011;20918;51.138;17.370;2022-10-13T15:07:44;10.20;;;5.95;;
34695;SDS011;20918;51.138;17.370;2022-10-13T15:10:46;14.87;;;6.47;;
34695;SDS011;20918;51.138;17.370;2022-10-13T15:13:47;10.00;;;6.80;;
34695;SDS011;20918;51.138;17.370;2022-10-13T15:16:48;11.57;;;6.72;;
34695;SDS011;20918;51.138;17.370;2022-10-13T15:19:51;11.05;;;7.08;;
34695;SDS011;20918;51.138;17.370;2022-10-13T15:22:53;14.07;;;7.85;;
34695;SDS011;20918;51.138;17.370;2022-10-13T15:25:57;10.82;;;6.95;;
34695;SDS011;20918;51.138;17.370;2022-10-13T15:29:00;12.60;;;6.78;;
34695;SDS011;20918;51.138;17.370;2022-10-13T15:32:08;12.88;;;6.92;;
34695;SDS011;20918;51.138;17.370;2022-10-13T15:35:12;15.03;;;8.00;;
34695;SDS011;20918;51.138;17.370;2022-10-13T15:38:15;14.20;;;7.55;;
34695;SDS011;20918;51.138;17.370;2022-10-13T15:41:21;10.90;;;6.62;;
34695;SDS011;20918;51.138;17.370;2022-10-13T15:44:32;12.53;;;6.67;;
34695;SDS011;20918;51.138;17.370;2022-10-13T15:47:35;13.18;;;7.42;;
34695;SDS011;20918;51.138;17.370;2022-10-13T15:50:37;13.93;;;7.62;;
34695;SDS011;20918;51.138;17.370;2022-10-13T15:53:41;9.13;;;6.65;;
34695;SDS011;20918;51.138;17.370;2022-10-13T15:56:42;12.88;;;7.40;;
34695;SDS011;20918;51.138;17.370;2022-10-13T15:59:46;21.20;;;7.95;;
34695;SDS011;20918;51.138;17.370;2022-10-13T16:02:49;17.55;;;7.53;;
34695;SDS011;20918;51.138;17.370;2022-10-13T16:05:51;12.98;;;7.33;;
34695;SDS011;20918;51.138;17.370;2022-10-13T16:08:54;18.75;;;7.22;;
34695;SDS011;20918;51.138;17.370;2022-10-13T16:11:59;15.72;;;8.18;;
34695;SDS011;20918;51.138;17.370;2022-10-13T16:15:00;11.12;;;7.55;;
34695;SDS011;20918;51.138;17.370;2022-10-13T16:18:02;13.58;;;8.38;;
34695;SDS011;20918;51.138;17.370;2022-10-13T16:21:39;21.12;;;11.80;;
34695;SDS011;20918;51.138;17.370;2022-10-13T16:24:19;23.67;;;11.80;;
34695;SDS011;20918;51.138;17.370;2022-10-13T16:27:21;30.17;;;16.75;;
34695;SDS011;20918;51.138;17.370;2022-10-13T16:30:23;33.78;;;19.67;;
34695;SDS011;20918;51.138;17.370;2022-10-13T16:33:24;42.33;;;25.52;;
34695;SDS011;20918;51.138;17.370;2022-10-13T16:36:25;34.75;;;18.27;;
34695;SDS011;20918;51.138;17.370;2022-10-13T16:39:27;31.55;;;13.88;;
34695;SDS011;20918;51.138;17.370;2022-10-13T16:42:28;24.80;;;13.22;;
34695;SDS011;20918;51.138;17.370;2022-10-13T16:45:29;22.85;;;12.25;;
34695;SDS011;20918;51.138;17.370;2022-10-13T16:48:30;22.58;;;11.12;;
34695;SDS011;20918;51.138;17.370;2022-10-13T16:51:32;22.85;;;12.40;;
34695;SDS011;20918;51.138;17.370;2022-10-13T16:54:33;23.95;;;13.10;;
34695;SDS011;20918;51.138;17.370;2022-10-13T16:57:36;25.15;;;16.30;;
34695;SDS011;20918;51.138;17.370;2022-10-13T17:00:37;32.45;;;19.70;;
34695;SDS011;20918;51.138;17.370;2022-10-13T17:03:41;24.15;;;13.10;;
34695;SDS011;20918;51.138;17.370;2022-10-13T17:06:43;30.62;;;17.77;;
34695;SDS011;20918;51.138;17.370;2022-10-13T17:09:44;30.02;;;18.48;;
34695;SDS011;20918;51.138;17.370;2022-10-13T17:12:46;27.13;;;16.57;;
34695;SDS011;20918;51.138;17.370;2022-10-13T17:15:51;27.75;;;15.03;;
34695;SDS011;20918;51.138;17.370;2022-10-13T17:18:54;24.98;;;12.95;;
34695;SDS011;20918;51.138;17.370;2022-10-13T17:21:57;24.12;;;12.73;;
34695;SDS011;20918;51.138;17.370;2022-10-13T17:24:58;23.80;;;13.08;;
34695;SDS011;20918;51.138;17.370;2022-10-13T17:27:59;25.48;;;13.32;;
34695;SDS011;20918;51.138;17.370;2022-10-13T17:31:02;21.50;;;12.30;;
34695;SDS011;20918;51.138;17.370;2022-10-13T17:34:10;26.77;;;12.95;;
34695;SDS011;20918;51.138;17.370;2022-10-13T17:37:11;30.50;;;14.20;;
34695;SDS011;20918;51.138;17.370;2022-10-13T17:40:13;29.15;;;15.95;;
34695;SDS011;20918;51.138;17.370;2022-10-13T17:43:14;20.75;;;12.63;;
34695;SDS011;20918;51.138;17.370;2022-10-13T17:46:21;31.95;;;14.98;;
34695;SDS011;20918;51.138;17.370;2022-10-13T17:49:22;29.70;;;16.80;;
34695;SDS011;20918;51.138;17.370;2022-10-13T17:52:23;20.02;;;10.68;;
34695;SDS011;20918;51.138;17.370;2022-10-13T17:55:27;28.25;;;12.95;;
34695;SDS011;20918;51.138;17.370;2022-10-13T17:58:30;25.48;;;11.70;;
34695;SDS011;20918;51.138;17.370;2022-10-13T18:01:32;29.90;;;11.83;;
34695;SDS011;20918;51.138;17.370;2022-10-13T18:04:34;22.95;;;10.98;;
34695;SDS011;20918;51.138;17.370;2022-10-13T18:07:35;20.68;;;10.88;;
34695;SDS011;20918;51.138;17.370;2022-10-13T18:10:39;17.32;;;11.15;;
34695;SDS011;20918;51.138;17.370;2022-10-13T18:13:40;29.42;;;16.60;;
34695;SDS011;20918;51.138;17.370;2022-10-13T18:16:42;27.00;;;15.72;;
34695;SDS011;20918;51.138;17.370;2022-10-13T18:19:45;21.35;;;13.60;;
34695;SDS011;20918;51.138;17.370;2022-10-13T18:22:48;38.02;;;17.60;;
34695;SDS011;20918;51.138;17.370;2022-10-13T18:25:50;24.05;;;14.13;;
34695;SDS011;20918;51.138;17.370;2022-10-13T18:28:53;25.12;;;13.75;;
34695;SDS011;20918;51.138;17.370;2022-10-13T18:31:56;29.10;;;14.07;;
34695;SDS011;20918;51.138;17.370;2022-10-13T18:34:57;28.02;;;14.20;;
34695;SDS011;20918;51.138;17.370;2022-10-13T18:37:58;22.90;;;14.60;;
34695;SDS011;20918;51.138;17.370;2022-10-13T18:41:02;24.80;;;13.22;;
34695;SDS011;20918;51.138;17.370;2022-10-13T18:44:03;23.57;;;12.95;;
34695;SDS011;20918;51.138;17.370;2022-10-13T18:47:06;22.37;;;12.88;;
34695;SDS011;20918;51.138;17.370;2022-10-13T18:50:08;26.15;;;13.53;;
34695;SDS011;20918;51.138;17.370;2022-10-13T18:53:10;25.65;;;14.13;;
34695;SDS011;20918;51.138;17.370;2022-10-13T18:56:19;25.30;;;15.55;;
34695;SDS011;20918;51.138;17.370;2022-10-13T18:59:21;24.40;;;14.58;;
34695;SDS011;20918;51.138;17.370;2022-10-13T19:02:22;29.35;;;14.87;;
34695;SDS011;20918;51.138;17.370;2022-10-13T19:05:23;21.82;;;12.88;;
34695;SDS011;20918;51.138;17.370;2022-10-13T19:08:27;25.23;;;14.00;;
34695;SDS011;20918;51.138;17.370;2022-10-13T19:11:29;26.77;;;15.53;;
34695;SDS011;20918;51.138;17.370;2022-10-13T19:14:35;31.25;;;17.15;;
34695;SDS011;20918;51.138;17.370;2022-10-13T19:17:34;38.58;;;19.23;;
34695;SDS011;20918;51.138;17.370;2022-10-13T19:20:35;43.92;;;20.10;;
34695;SDS011;20918;51.138;17.370;2022-10-13T19:23:38;40.25;;;22.15;;
34695;SDS011;20918;51.138;17.370;2022-10-13T19:26:42;49.48;;;27.55;;
34695;SDS011;20918;51.138;17.370;2022-10-13T19:29:43;66.37;;;32.20;;
34695;SDS011;20918;51.138;17.370;2022-10-13T19:32:44;62.00;;;32.60;;
34695;SDS011;20918;51.138;17.370;2022-10-13T19:35:48;43.38;;;24.10;;
34695;SDS011;20918;51.138;17.370;2022-10-13T19:38:53;55.00;;;26.73;;
34695;SDS011;20918;51.138;17.370;2022-10-13T19:41:54;53.85;;;27.80;;
34695;SDS011;20918;51.138;17.370;2022-10-13T19:44:58;47.30;;;26.73;;
34695;SDS011;20918;51.138;17.370;2022-10-13T19:48:01;36.60;;;22.67;;
34695;SDS011;20918;51.138;17.370;2022-10-13T19:51:05;38.00;;;22.37;;
34695;SDS011;20918;51.138;17.370;2022-10-13T19:54:08;35.88;;;20.60;;
34695;SDS011;20918;51.138;17.370;2022-10-13T19:57:11;35.75;;;20.75;;